Humboldt, Canada
Current Conditions -  °F | °C
As of 10:00 AM on Monday 24 Nov 2014 (Local Time) from CYXE Reporting Station
Snow Showers Snow Showers  
Wind Chill:   Ceiling: 1500
Heat Index: 16°   Visibility: 8mi
Dew Point: 14°   Wind: 7mph
Humidity: 93%   Direction: 220°SW
Pressure: 29.88"   Gusts: NA
Location:  52.2°N, 105.12°W
Report Text: CYXE 241600Z 22006KT 8SM -SHSN BKN015 OVC050 M09/M10 A2988 RMK SC6SC2 SLP157
Loading
Personal Weather Stations






























Interactive Weather Map New forecast layout! Learn more

10-Day Weather Forecast

Advertisements
Track Severe Weather on mobile